Time;durP1;ratioP1;P1;durP2;ratioP2;P2;SDS_P1;SDS_P2;PMS_P1;PMS_P2;Temp;Humidity;BMP_temperature;BMP_pressure;BME280_temperature;BME280_humidity;BME280_pressure;Samples;Min_cycle;Max_cycle;Signal;HPM_P1;HPM_P2
2022/08/13 00:00:32;;;;;;;2.90;2.47;;;21.00;53.60;;;;;;5060320;28;20498;-80
2022/08/13 00:02:59;;;;;;;3.10;2.50;;;21.00;53.80;;;;;;5059572;28;20503;-80
2022/08/13 00:05:26;;;;;;;2.50;2.30;;;20.90;54.10;;;;;;5064968;28;20541;-78
2022/08/13 00:07:54;;;;;;;4.70;3.00;;;20.80;54.40;;;;;;5052399;28;20454;-79
2022/08/13 00:10:23;;;;;;;4.57;2.87;;;20.80;54.70;;;;;;5047112;28;20453;-80
2022/08/13 00:13:03;;;;;;;3.50;2.60;;;20.80;54.80;;;;;;5061589;28;20445;-80
2022/08/13 00:15:32;;;;;;;3.70;3.40;;;20.70;55.10;;;;;;5061082;28;20433;-79
2022/08/13 00:18:02;;;;;;;2.93;2.10;;;20.60;55.20;;;;;;5060735;28;20452;-80
2022/08/13 00:20:32;;;;;;;3.33;3.03;;;20.50;55.20;;;;;;5060373;28;20456;-80
2022/08/13 00:23:00;;;;;;;3.23;2.73;;;20.30;55.70;;;;;;5060344;28;20437;-78
2022/08/13 00:25:27;;;;;;;4.57;2.83;;;20.40;55.80;;;;;;5059592;28;20492;-78
2022/08/13 00:27:58;;;;;;;3.30;3.00;;;20.50;55.70;;;;;;5059242;28;20475;-79
2022/08/13 00:30:33;;;;;;;3.13;2.83;;;20.40;55.80;;;;;;5059887;28;20486;-79
2022/08/13 00:33:01;;;;;;;3.60;2.70;;;20.40;55.90;;;;;;5058817;28;20441;-79
2022/08/13 00:35:28;;;;;;;3.10;2.60;;;20.30;55.90;;;;;;5058645;28;20440;-79
2022/08/13 00:37:56;;;;;;;2.63;2.17;;;20.20;56.10;;;;;;5059801;28;20457;-79
2022/08/13 00:40:25;;;;;;;2.17;1.80;;;20.20;56.00;;;;;;5060028;28;20524;-79
2022/08/13 00:42:52;;;;;;;2.43;2.23;;;20.20;55.90;;;;;;5059627;28;20440;-79
2022/08/13 00:45:20;;;;;;;3.27;2.60;;;20.10;56.00;;;;;;5056965;28;20452;-78
2022/08/13 00:50:34;;;;;;;2.97;2.30;;;20.00;56.70;;;;;;5057812;28;20554;-78
2022/08/13 00:53:01;;;;;;;6.60;2.80;;;20.10;56.80;;;;;;5060127;28;20437;-79
2022/08/13 00:55:29;;;;;;;2.50;2.10;;;20.00;56.90;;;;;;5067225;28;20445;-78
2022/08/13 00:57:56;;;;;;;4.60;2.60;;;19.90;57.00;;;;;;5062243;28;20468;-78
2022/08/13 01:00:26;;;;;;;5.10;2.63;;;19.90;57.20;;;;;;5060478;28;20452;-79
2022/08/13 01:02:55;;;;;;;2.67;2.47;;;19.80;57.40;;;;;;5059283;28;20437;-78
2022/08/13 01:05:24;;;;;;;3.07;2.53;;;19.70;57.60;;;;;;5057753;28;20544;-79
2022/08/13 01:07:52;;;;;;;2.90;2.30;;;19.70;57.80;;;;;;5058207;28;20571;-79
2022/08/13 01:10:19;;;;;;;3.23;2.30;;;19.70;57.90;;;;;;5056791;28;20480;-79
2022/08/13 01:12:51;;;;;;;2.77;2.23;;;19.70;58.10;;;;;;5068263;28;20480;-79
2022/08/13 01:15:19;;;;;;;4.40;2.97;;;19.60;58.10;;;;;;5064375;28;20441;-79
2022/08/13 01:17:47;;;;;;;3.30;2.33;;;19.70;58.30;;;;;;5059310;28;20437;-79
2022/08/13 01:20:21;;;;;;;2.80;2.33;;;19.70;58.20;;;;;;5058627;28;20424;-79
2022/08/13 01:22:52;;;;;;;4.60;2.90;;;19.70;58.30;;;;;;5057168;28;20433;-79
2022/08/13 01:25:20;;;;;;;4.20;2.20;;;19.70;58.20;;;;;;5057324;28;20895;-79
2022/08/13 01:27:48;;;;;;;3.17;2.53;;;19.80;58.30;;;;;;5059683;28;20445;-79
2022/08/13 01:30:17;;;;;;;4.40;2.80;;;19.80;58.10;;;;;;5060010;28;20473;-79
2022/08/13 01:32:44;;;;;;;3.80;3.20;;;19.80;58.30;;;;;;5059369;28;20455;-79
2022/08/13 01:35:11;;;;;;;5.43;2.87;;;19.80;58.50;;;;;;5058437;28;20434;-79
2022/08/13 01:37:38;;;;;;;7.10;3.70;;;19.80;58.60;;;;;;5059481;28;20464;-79
2022/08/13 01:40:08;;;;;;;4.83;3.47;;;19.70;58.60;;;;;;5056439;28;20496;-79
2022/08/13 01:42:38;;;;;;;4.20;2.80;;;19.70;58.90;;;;;;5056605;28;20457;-79
2022/08/13 01:45:06;;;;;;;3.03;2.73;;;19.70;59.10;;;;;;5056400;28;20445;-79
2022/08/13 01:50:32;;;;;;;3.40;2.60;;;19.80;59.10;;;;;;5058896;28;20537;-78
2022/08/13 01:53:01;;;;;;;5.80;2.97;;;19.60;59.30;;;;;;5060024;28;20449;-78
2022/08/13 01:55:39;;;;;;;3.70;2.60;;;19.60;59.70;;;;;;5059703;28;20453;-78
2022/08/13 01:58:08;;;;;;;3.47;2.63;;;19.50;60.00;;;;;;5059756;28;20452;-78
2022/08/13 02:00:37;;;;;;;7.30;2.53;;;19.40;60.10;;;;;;5052981;28;20449;-79
2022/08/13 02:03:05;;;;;;;4.83;2.90;;;19.30;60.60;;;;;;5055609;28;20437;-80
2022/08/13 02:05:33;;;;;;;3.47;2.67;;;19.30;61.20;;;;;;5058235;28;20451;-79
2022/08/13 02:08:01;;;;;;;2.90;2.70;;;19.40;61.60;;;;;;5058601;28;20445;-79
2022/08/13 02:10:28;;;;;;;2.60;2.40;;;19.40;61.90;;;;;;5057647;28;20509;-79
2022/08/13 02:12:56;;;;;;;3.30;2.77;;;19.40;62.20;;;;;;5058448;28;20520;-79
2022/08/13 02:15:24;;;;;;;3.53;2.97;;;19.40;62.60;;;;;;5057767;28;20444;-79
2022/08/13 02:17:50;;;;;;;3.30;3.00;;;19.30;62.90;;;;;;5061743;28;20441;-78
2022/08/13 02:20:17;;;;;;;2.63;2.43;;;19.30;63.20;;;;;;5059245;28;20440;-80
2022/08/13 02:22:46;;;;;;;3.30;2.70;;;19.20;63.40;;;;;;5052086;28;20437;-80
2022/08/13 02:25:14;;;;;;;2.83;2.63;;;19.20;63.90;;;;;;5057417;28;20504;-80
2022/08/13 02:27:42;;;;;;;3.50;2.60;;;19.20;63.80;;;;;;5058303;28;20869;-80
2022/08/13 02:30:12;;;;;;;3.97;3.10;;;19.20;63.90;;;;;;5058935;28;20437;-78
2022/08/13 02:32:40;;;;;;;2.70;2.40;;;19.10;64.00;;;;;;5059421;28;20463;-79
2022/08/13 02:35:09;;;;;;;4.77;3.00;;;19.10;64.30;;;;;;5060862;28;20441;-78
2022/08/13 02:37:37;;;;;;;4.00;2.90;;;19.00;64.40;;;;;;5058337;28;20506;-78
2022/08/13 02:41:38;;;;;;;4.40;3.30;;;19.00;65.40;;;;;;5056955;28;20441;-79
2022/08/13 02:42:53;;;;;;;3.00;2.70;;;19.00;64.60;;;;;;5058837;28;20497;-80
2022/08/13 02:45:23;;;;;;;4.53;2.97;;;19.00;64.40;;;;;;5061289;28;20456;-79
2022/08/13 02:47:52;;;;;;;3.13;2.93;;;18.90;64.40;;;;;;5062526;28;20198;-78
2022/08/13 02:50:20;;;;;;;4.00;3.33;;;18.90;64.90;;;;;;5063590;28;20433;-79
2022/08/13 02:52:49;;;;;;;3.30;3.00;;;18.90;65.40;;;;;;5062900;28;20472;-80
2022/08/13 02:55:15;;;;;;;4.80;2.93;;;18.90;65.60;;;;;;5062708;28;20447;-79
2022/08/13 02:57:43;;;;;;;3.13;2.83;;;18.90;65.60;;;;;;5063335;28;20445;-78
2022/08/13 03:00:10;;;;;;;3.13;2.83;;;18.90;65.50;;;;;;5062889;28;20476;-80
2022/08/13 03:02:44;;;;;;;3.37;2.70;;;18.80;65.60;;;;;;5062327;28;20445;-79
2022/08/13 03:05:13;;;;;;;4.20;3.23;;;18.80;65.80;;;;;;5061556;28;20488;-80
2022/08/13 03:07:41;;;;;;;3.33;3.13;;;18.70;66.20;;;;;;5062745;28;20822;-79
2022/08/13 03:10:11;;;;;;;3.43;2.80;;;18.60;66.40;;;;;;5062537;28;20441;-79
2022/08/13 03:12:40;;;;;;;3.60;3.00;;;18.60;67.00;;;;;;5062667;28;20476;-79
2022/08/13 03:15:09;;;;;;;4.10;3.30;;;18.50;67.20;;;;;;5062489;28;20436;-79
2022/08/13 03:17:36;;;;;;;3.20;2.80;;;18.50;67.40;;;;;;5060008;28;20429;-79
2022/08/13 03:20:06;;;;;;;6.17;3.93;;;18.50;67.40;;;;;;5060085;28;20496;-80
2022/08/13 03:22:46;;;;;;;4.23;3.93;;;18.50;67.30;;;;;;5053571;28;20454;-78
2022/08/13 03:25:12;;;;;;;4.37;3.97;;;18.40;67.50;;;;;;5067606;28;20425;-78
2022/08/13 03:27:39;;;;;;;3.27;2.73;;;18.40;67.80;;;;;;5064493;28;20442;-80
2022/08/13 03:30:09;;;;;;;5.50;4.30;;;18.50;68.00;;;;;;5059334;28;20436;-79
2022/08/13 03:32:40;;;;;;;4.87;3.10;;;18.40;68.00;;;;;;5056613;28;20484;-79
2022/08/13 03:35:13;;;;;;;3.10;2.43;;;18.40;68.00;;;;;;5057956;28;20437;-78
2022/08/13 03:37:41;;;;;;;4.73;3.10;;;18.40;68.20;;;;;;5060323;28;20439;-78
2022/08/13 03:40:10;;;;;;;3.33;3.03;;;18.30;68.50;;;;;;5061991;28;20444;-79
2022/08/13 03:42:37;;;;;;;3.17;2.87;;;18.20;68.70;;;;;;5058523;28;20456;-79
2022/08/13 03:45:05;;;;;;;2.60;2.40;;;18.20;68.90;;;;;;5058990;28;20812;-79
2022/08/13 03:47:31;;;;;;;4.77;3.33;;;18.30;69.30;;;;;;5061540;28;20498;-78
2022/08/13 03:49:59;;;;;;;3.20;3.00;;;18.20;69.50;;;;;;5062767;28;20437;-78
2022/08/13 03:52:28;;;;;;;3.63;3.33;;;18.20;69.60;;;;;;5060488;28;20500;-79
2022/08/13 03:54:55;;;;;;;6.43;3.27;;;18.20;70.10;;;;;;5059981;28;21068;-78
2022/08/13 03:57:22;;;;;;;2.80;2.60;;;18.20;70.20;;;;;;5059572;28;20436;-79
2022/08/13 03:59:49;;;;;;;4.97;3.97;;;18.10;70.50;;;;;;5057541;28;20441;-80
2022/08/13 04:02:16;;;;;;;4.60;2.67;;;18.10;70.70;;;;;;5059776;28;20460;-79
2022/08/13 04:04:46;;;;;;;4.10;2.80;;;18.10;71.00;;;;;;5060412;28;20954;-78
2022/08/13 04:07:14;;;;;;;3.00;2.40;;;18.10;71.30;;;;;;5058113;28;20453;-79
2022/08/13 04:09:42;;;;;;;2.93;2.67;;;18.00;71.80;;;;;;5060371;28;20444;-79
2022/08/13 04:12:10;;;;;;;3.93;3.60;;;18.00;72.20;;;;;;5048770;28;20473;-79
2022/08/13 04:14:36;;;;;;;3.30;2.63;;;18.00;72.40;;;;;;5040655;28;20522;-78
2022/08/13 04:17:05;;;;;;;3.70;3.23;;;17.90;72.60;;;;;;5056809;28;20452;-78
2022/08/13 04:19:33;;;;;;;4.27;3.60;;;17.90;72.70;;;;;;5059895;28;20531;-79
2022/08/13 04:22:01;;;;;;;3.43;2.77;;;17.90;72.70;;;;;;5060504;28;20483;-78
2022/08/13 04:24:28;;;;;;;7.83;2.90;;;18.00;72.80;;;;;;5060132;28;20532;-78
2022/08/13 04:26:58;;;;;;;4.00;3.00;;;18.00;72.80;;;;;;5061535;28;20441;-79
2022/08/13 04:29:25;;;;;;;5.27;3.97;;;18.00;72.90;;;;;;5059826;28;20474;-79
2022/08/13 04:31:52;;;;;;;5.83;3.53;;;17.90;73.40;;;;;;5068747;28;20476;-77
2022/08/13 04:34:22;;;;;;;3.60;3.33;;;17.90;73.90;;;;;;5065381;28;20449;-80
2022/08/13 04:36:49;;;;;;;3.80;3.50;;;17.80;74.10;;;;;;5059047;28;20433;-78
2022/08/13 04:39:15;;;;;;;3.20;2.90;;;17.90;74.10;;;;;;5069338;28;20448;-77
2022/08/13 04:41:42;;;;;;;3.70;3.30;;;17.90;74.20;;;;;;5063527;28;20460;-79
2022/08/13 04:44:10;;;;;;;3.50;3.00;;;18.00;74.30;;;;;;5058330;28;20443;-79
2022/08/13 04:46:38;;;;;;;3.27;2.77;;;18.00;74.30;;;;;;5058612;28;20444;-79
2022/08/13 04:49:05;;;;;;;5.07;3.10;;;18.00;74.30;;;;;;5056070;28;20437;-79
2022/08/13 04:51:34;;;;;;;5.43;3.60;;;18.00;74.40;;;;;;5058827;28;20472;-79
2022/08/13 04:54:02;;;;;;;5.50;3.23;;;18.00;74.50;;;;;;5058677;28;20436;-79
2022/08/13 04:56:29;;;;;;;4.47;3.40;;;18.00;74.60;;;;;;5058394;28;20441;-79
2022/08/13 04:58:56;;;;;;;3.50;3.13;;;18.20;74.80;;;;;;5058575;28;20453;-78
2022/08/13 05:01:24;;;;;;;3.63;2.90;;;18.40;74.10;;;;;;5058844;28;20472;-78
2022/08/13 05:03:51;;;;;;;3.80;3.50;;;18.80;72.20;;;;;;5058097;28;20945;-78
2022/08/13 05:06:19;;;;;;;4.07;3.30;;;19.20;70.30;;;;;;5060641;28;20479;-78
2022/08/13 05:08:46;;;;;;;5.90;3.90;;;19.50;68.70;;;;;;5059386;28;20444;-79
2022/08/13 05:11:13;;;;;;;3.33;2.83;;;19.90;67.00;;;;;;5058648;28;20485;-78
2022/08/13 05:13:40;;;;;;;3.80;3.23;;;20.30;65.40;;;;;;5059186;28;20433;-78
2022/08/13 05:16:09;;;;;;;5.20;3.13;;;20.60;64.00;;;;;;5060612;28;20475;-79
2022/08/13 05:18:38;;;;;;;3.83;3.53;;;21.00;62.00;;;;;;5058222;28;20433;-78
2022/08/13 05:21:08;;;;;;;5.73;3.30;;;21.40;60.60;;;;;;5059569;28;20464;-79
2022/08/13 05:23:37;;;;;;;2.73;2.43;;;21.70;59.30;;;;;;5056235;28;20451;-79
2022/08/13 05:26:04;;;;;;;3.60;2.90;;;22.00;58.60;;;;;;5058605;28;20583;-79
2022/08/13 05:28:31;;;;;;;3.70;3.00;;;22.10;58.50;;;;;;5058646;28;20460;-79
2022/08/13 05:30:58;;;;;;;4.30;3.53;;;22.20;58.20;;;;;;5058191;28;20461;-79
2022/08/13 05:33:26;;;;;;;5.23;3.40;;;22.50;57.80;;;;;;5058418;28;20453;-79
2022/08/13 05:35:57;;;;;;;5.47;4.50;;;22.80;56.70;;;;;;5058479;28;20437;-79
2022/08/13 05:38:26;;;;;;;5.23;3.13;;;23.10;55.80;;;;;;5066374;28;20532;-78
2022/08/13 05:40:54;;;;;;;5.00;3.27;;;23.50;55.10;;;;;;5063135;28;20491;-78
2022/08/13 05:43:23;;;;;;;4.60;3.17;;;23.40;54.40;;;;;;5055014;28;20436;-78
2022/08/13 05:45:54;;;;;;;6.10;3.20;;;23.10;54.70;;;;;;5051480;28;20487;-78
2022/08/13 05:48:21;;;;;;;3.50;3.20;;;22.80;54.90;;;;;;5052280;28;20441;-79
2022/08/13 05:50:47;;;;;;;3.53;3.23;;;22.60;55.50;;;;;;5052988;28;20467;-78
2022/08/13 05:53:16;;;;;;;3.40;3.13;;;22.90;55.60;;;;;;5054271;28;20506;-79
2022/08/13 05:55:43;;;;;;;4.37;3.23;;;23.50;54.90;;;;;;5054339;28;20453;-79
2022/08/13 05:58:13;;;;;;;3.80;3.00;;;24.00;53.60;;;;;;5051330;28;20451;-80
2022/08/13 06:03:26;;;;;;;3.27;3.07;;;25.20;52.10;;;;;;5068938;28;20620;-86
2022/08/13 06:05:54;;;;;;;3.80;3.50;;;25.70;50.70;;;;;;5042728;28;20486;-87
2022/08/13 06:08:24;;;;;;;5.73;3.73;;;26.20;49.60;;;;;;5057312;28;20434;-86
2022/08/13 06:10:52;;;;;;;4.17;3.10;;;26.80;48.50;;;;;;5074682;28;20447;-86
2022/08/13 06:13:19;;;;;;;3.70;2.80;;;27.20;47.50;;;;;;5067892;28;20477;-86
2022/08/13 06:15:49;;;;;;;6.00;3.20;;;27.60;46.60;;;;;;5062325;28;20806;-87
2022/08/13 06:18:18;;;;;;;2.47;2.27;;;27.60;45.70;;;;;;5047959;28;20438;-87
2022/08/13 06:20:45;;;;;;;3.40;2.67;;;27.60;45.50;;;;;;5047804;28;20552;-86
2022/08/13 06:23:14;;;;;;;3.10;2.70;;;27.80;45.30;;;;;;5053014;28;20468;-86
2022/08/13 06:25:42;;;;;;;3.20;2.90;;;28.20;44.40;;;;;;5051821;28;20529;-87
2022/08/13 06:28:10;;;;;;;2.93;2.53;;;28.40;43.90;;;;;;5046229;28;20849;-86
2022/08/13 06:30:38;;;;;;;4.53;2.40;;;29.00;43.40;;;;;;5064369;28;20479;-87
2022/08/13 06:33:05;;;;;;;3.77;2.90;;;29.50;42.20;;;;;;5044137;28;20512;-86
2022/08/13 06:35:34;;;;;;;4.40;2.60;;;29.70;41.40;;;;;;5045314;28;20443;-87
2022/08/13 06:38:01;;;;;;;2.40;2.20;;;29.90;41.00;;;;;;5046875;28;20940;-86
2022/08/13 06:40:33;;;;;;;2.80;2.60;;;30.10;40.80;;;;;;5046598;28;20467;-87
2022/08/13 06:43:02;;;;;;;4.03;2.43;;;30.50;40.30;;;;;;5048043;28;20480;-87
2022/08/13 06:45:29;;;;;;;2.60;2.40;;;30.50;40.20;;;;;;5073739;28;20450;-87
2022/08/13 06:47:56;;;;;;;4.00;2.90;;;30.50;39.90;;;;;;5057546;28;20472;-88
2022/08/13 06:50:22;;;;;;;2.50;2.30;;;30.60;40.00;;;;;;5041385;28;20448;-87
2022/08/13 06:52:49;;;;;;;3.80;2.70;;;30.60;39.90;;;;;;5044561;28;20476;-87
2022/08/13 06:55:17;;;;;;;3.10;2.87;;;30.90;39.50;;;;;;5027670;28;20446;-87
2022/08/13 06:57:47;;;;;;;2.70;2.50;;;31.30;39.20;;;;;;5026593;28;20463;-87
2022/08/13 07:00:16;;;;;;;4.83;2.60;;;31.80;38.50;;;;;;5026037;28;20504;-87
2022/08/13 07:02:44;;;;;;;3.47;2.30;;;31.70;38.20;;;;;;5030353;28;20434;-87
2022/08/13 07:05:12;;;;;;;2.53;2.33;;;31.70;37.70;;;;;;5045173;28;20554;-87
2022/08/13 07:07:45;;;;;;;2.60;2.33;;;31.50;38.10;;;;;;5035920;28;20465;-88
2022/08/13 07:10:13;;;;;;;3.13;2.83;;;31.00;38.90;;;;;;5036129;28;20460;-87
2022/08/13 07:12:41;;;;;;;2.70;2.50;;;31.00;39.10;;;;;;5054380;28;20505;-87
2022/08/13 07:15:15;;;;;;;2.60;2.40;;;31.70;38.70;;;;;;5063391;28;20971;-87
2022/08/13 07:17:44;;;;;;;2.60;2.20;;;32.30;37.60;;;;;;5047120;28;20469;-87
2022/08/13 07:20:11;;;;;;;3.00;2.63;;;32.60;37.00;;;;;;5047185;28;20536;-88
2022/08/13 07:22:38;;;;;;;2.60;2.40;;;33.40;36.30;;;;;;5045778;28;20450;-87
2022/08/13 07:25:07;;;;;;;2.77;2.00;;;33.90;35.60;;;;;;5043995;28;20443;-88
2022/08/13 07:27:34;;;;;;;2.77;2.57;;;33.70;35.00;;;;;;5048096;28;20439;-87
2022/08/13 07:30:02;;;;;;;3.10;2.90;;;32.80;36.10;;;;;;5057387;28;20448;-89
2022/08/13 07:32:30;;;;;;;3.17;2.30;;;32.50;36.90;;;;;;5070436;28;20485;-87
2022/08/13 07:34:58;;;;;;;3.70;3.17;;;33.20;36.30;;;;;;5067769;28;20453;-88
2022/08/13 07:37:25;;;;;;;2.97;2.67;;;34.10;35.10;;;;;;5045653;28;20511;-87
2022/08/13 07:39:52;;;;;;;3.23;2.33;;;33.90;34.80;;;;;;5071311;28;20430;-88
2022/08/13 07:42:21;;;;;;;2.33;2.13;;;33.70;35.00;;;;;;5064299;28;20448;-88
2022/08/13 07:44:52;;;;;;;5.13;3.30;;;34.60;34.80;;;;;;5053705;28;20474;-88
2022/08/13 07:47:20;;;;;;;2.67;2.47;;;35.10;33.60;;;;;;5067238;28;20438;-88
2022/08/13 07:49:49;;;;;;;2.77;2.57;;;35.00;33.10;;;;;;5062210;28;20442;-88
2022/08/13 07:52:16;;;;;;;2.70;2.50;;;35.40;33.10;;;;;;5052558;28;20489;-87
2022/08/13 07:54:50;;;;;;;2.73;2.50;;;35.20;32.80;;;;;;5042037;28;20963;-87
2022/08/13 07:57:18;;;;;;;3.53;2.67;;;34.90;32.80;;;;;;5072458;28;20470;-87
2022/08/13 07:59:45;;;;;;;2.57;2.20;;;34.20;33.70;;;;;;5057349;28;20447;-87
2022/08/13 08:02:12;;;;;;;2.87;2.27;;;34.60;34.10;;;;;;5044462;28;21018;-88
2022/08/13 08:04:40;;;;;;;3.97;2.70;;;35.20;33.50;;;;;;5044675;28;20528;-87
2022/08/13 08:07:09;;;;;;;3.30;2.80;;;34.60;33.90;;;;;;5043294;28;20451;-87
2022/08/13 08:09:36;;;;;;;2.60;2.40;;;35.30;32.90;;;;;;5047086;28;20445;-87
2022/08/13 08:14:49;;;;;;;2.90;2.70;;;35.70;32.70;;;;;;5042469;28;20431;-89
2022/08/13 08:17:16;;;;;;;2.80;2.60;;;36.80;31.80;;;;;;5050983;28;20968;-87
2022/08/13 08:19:43;;;;;;;3.13;2.33;;;36.60;31.00;;;;;;5067355;28;20444;-87
2022/08/13 08:22:12;;;;;;;2.77;2.40;;;36.50;30.90;;;;;;5078763;28;20472;-87
2022/08/13 08:24:38;;;;;;;2.97;2.43;;;37.00;31.00;;;;;;5079001;28;20451;-87
2022/08/13 08:27:09;;;;;;;3.83;2.20;;;36.50;30.70;;;;;;5065134;28;20446;-87
2022/08/13 08:29:39;;;;;;;3.00;2.80;;;36.00;31.60;;;;;;5043806;28;20485;-87
2022/08/13 08:32:07;;;;;;;3.50;3.20;;;35.60;31.90;;;;;;5054992;28;20464;-87
2022/08/13 08:34:35;;;;;;;3.57;2.67;;;35.50;32.40;;;;;;5056669;28;20429;-88
2022/08/13 08:37:02;;;;;;;3.90;2.70;;;35.70;32.40;;;;;;5050854;28;20449;-88
2022/08/13 08:42:38;;;;;;;2.53;2.33;;;35.50;32.10;;;;;;5068729;28;20465;-88
2022/08/13 08:45:14;;;;;;;3.90;2.63;;;34.40;33.40;;;;;;5059378;28;20459;-88
2022/08/13 08:47:42;;;;;;;4.17;2.73;;;33.80;34.50;;;;;;5036738;28;20450;-88
2022/08/13 08:50:10;;;;;;;3.10;2.90;;;33.50;34.80;;;;;;5044344;28;20444;-88
2022/08/13 08:55:24;;;;;;;4.33;2.40;;;30.90;37.90;;;;;;5031359;28;20480;-87
2022/08/13 08:57:52;;;;;;;2.80;2.60;;;30.00;39.80;;;;;;5039603;28;20810;-87
2022/08/13 09:00:20;;;;;;;2.77;2.47;;;29.80;40.70;;;;;;5033084;28;20473;-87
2022/08/13 09:02:49;;;;;;;3.70;2.47;;;29.80;40.60;;;;;;5031018;28;20442;-87
2022/08/13 09:05:20;;;;;;;3.40;2.40;;;29.60;40.70;;;;;;5026390;28;20457;-86
2022/08/13 09:07:47;;;;;;;4.80;2.63;;;29.40;41.30;;;;;;5028064;28;20452;-87
2022/08/13 09:10:15;;;;;;;3.00;2.80;;;30.30;40.90;;;;;;5047215;28;20445;-88
2022/08/13 09:12:45;;;;;;;3.60;2.80;;;31.80;38.60;;;;;;5033356;28;20533;-87
2022/08/13 09:15:12;;;;;;;3.03;2.80;;;32.30;37.60;;;;;;5023650;28;20462;-88
2022/08/13 09:17:40;;;;;;;3.50;2.27;;;33.20;36.10;;;;;;5022166;28;20452;-87
2022/08/13 09:20:12;;;;;;;2.63;2.30;;;33.60;35.10;;;;;;5048144;28;20441;-88
2022/08/13 09:22:40;;;;;;;3.03;2.40;;;32.50;35.60;;;;;;5047506;28;20911;-87
2022/08/13 09:25:08;;;;;;;3.70;2.53;;;31.60;36.90;;;;;;5048588;28;20433;-88
2022/08/13 09:27:35;;;;;;;2.90;2.70;;;30.40;38.00;;;;;;5049921;28;20502;-88
2022/08/13 09:30:05;;;;;;;3.20;2.53;;;29.70;39.40;;;;;;5047585;28;20449;-88
2022/08/13 09:32:32;;;;;;;3.27;2.30;;;29.60;40.40;;;;;;5046231;28;20485;-87
2022/08/13 09:34:59;;;;;;;2.90;2.43;;;29.80;39.90;;;;;;5044166;28;20473;-88
2022/08/13 09:37:28;;;;;;;3.00;2.50;;;30.60;39.30;;;;;;5057996;28;20416;-89
2022/08/13 09:39:58;;;;;;;3.70;2.80;;;32.20;37.30;;;;;;5060144;28;20464;-90
2022/08/13 09:42:28;;;;;;;3.20;2.57;;;33.50;35.10;;;;;;5048950;28;20922;-88
2022/08/13 09:44:56;;;;;;;5.70;2.60;;;34.20;34.10;;;;;;5048685;28;20480;-88
2022/08/13 09:47:25;;;;;;;3.47;2.70;;;35.40;33.00;;;;;;5034346;28;20462;-89
2022/08/13 09:49:52;;;;;;;6.27;3.00;;;35.80;32.30;;;;;;5031062;28;20803;-88
2022/08/13 09:52:20;;;;;;;3.00;2.70;;;37.70;30.00;;;;;;5038115;28;20463;-88
2022/08/13 09:54:48;;;;;;;2.83;2.30;;;38.00;29.30;;;;;;5049540;28;20940;-87
2022/08/13 09:57:14;;;;;;;3.40;3.20;;;37.90;29.40;;;;;;5046332;28;20448;-87
2022/08/13 09:59:41;;;;;;;2.43;2.23;;;38.10;28.90;;;;;;5027501;28;20436;-87
2022/08/13 10:02:12;;;;;;;2.60;2.40;;;36.60;29.30;;;;;;5027130;28;20475;-88
2022/08/13 10:04:42;;;;;;;3.63;2.73;;;35.50;30.50;;;;;;5028113;28;20480;-87
2022/08/13 10:07:09;;;;;;;3.37;2.67;;;34.00;32.80;;;;;;5028931;28;20798;-89
2022/08/13 10:09:36;;;;;;;2.97;2.63;;;34.60;32.80;;;;;;5028394;28;20449;-90
2022/08/13 10:12:05;;;;;;;4.10;2.97;;;36.10;31.10;;;;;;5049160;28;20459;-89
2022/08/13 10:14:32;;;;;;;2.67;2.47;;;37.50;29.60;;;;;;5049622;28;20548;-90
2022/08/13 10:16:59;;;;;;;3.13;2.83;;;37.50;29.30;;;;;;5031613;28;20441;-91
2022/08/13 10:19:25;;;;;;;2.27;2.07;;;36.10;29.50;;;;;;5054184;28;20448;-88
2022/08/13 10:21:53;;;;;;;2.60;2.37;;;34.30;31.60;;;;;;5074353;28;20471;-86
2022/08/13 10:24:20;;;;;;;2.30;2.10;;;32.70;32.90;;;;;;5076514;28;20469;-88
2022/08/13 10:26:47;;;;;;;2.83;2.57;;;32.00;34.30;;;;;;5068169;28;20477;-89
2022/08/13 10:29:14;;;;;;;2.47;2.07;;;31.70;35.00;;;;;;5065301;28;20421;-89
2022/08/13 10:31:40;;;;;;;2.50;2.30;;;30.90;35.80;;;;;;5075063;28;20462;-88
2022/08/13 10:34:07;;;;;;;2.50;2.27;;;31.40;35.40;;;;;;5054226;28;20490;-87
2022/08/13 10:36:35;;;;;;;2.60;2.40;;;31.60;35.30;;;;;;5051992;28;20452;-87
2022/08/13 10:39:05;;;;;;;3.00;2.73;;;31.80;35.00;;;;;;5050217;28;20448;-87
2022/08/13 10:44:01;;;;;;;4.00;2.50;;;31.00;34.20;;;;;;5035255;28;20465;-83
2022/08/13 10:46:31;;;;;;;3.07;2.20;;;30.30;35.20;;;;;;5036991;28;20451;-84
2022/08/13 10:48:58;;;;;;;2.47;2.27;;;30.20;36.00;;;;;;5036176;28;20539;-84
2022/08/13 10:51:26;;;;;;;4.40;2.63;;;30.70;35.60;;;;;;5042703;28;20454;-87
2022/08/13 10:54:02;;;;;;;5.30;2.63;;;31.90;35.00;;;;;;5034386;28;20584;-86
2022/08/13 10:56:32;;;;;;;2.07;1.93;;;34.70;31.80;;;;;;5036853;28;20429;-88
2022/08/13 10:59:01;;;;;;;3.20;2.20;;;37.20;29.10;;;;;;5033232;28;20453;-89
2022/08/13 11:01:30;;;;;;;2.10;1.90;;;39.60;27.30;;;;;;5026884;28;20437;-91
2022/08/13 11:04:01;;;;;;;2.27;1.87;;;41.00;25.20;;;;;;5022387;28;20432;-89
2022/08/13 11:06:29;;;;;;;3.23;2.20;;;41.70;24.10;;;;;;5014619;28;20483;-87
2022/08/13 11:08:57;;;;;;;2.70;2.00;;;41.10;24.40;;;;;;5016024;28;20450;-88
2022/08/13 11:11:24;;;;;;;2.40;2.20;;;41.40;23.80;;;;;;5018462;28;20524;-87
2022/08/13 11:13:52;;;;;;;2.60;2.33;;;41.70;23.60;;;;;;5018420;28;20488;-88
2022/08/13 11:19:12;;;;;;;2.90;1.80;;;42.60;23.00;;;;;;5019729;28;20454;-86
2022/08/13 11:21:39;;;;;;;2.47;1.70;;;42.60;22.50;;;;;;5013079;28;20455;-85
2022/08/13 11:24:06;;;;;;;2.30;1.80;;;43.00;22.20;;;;;;5011799;28;20445;-85
2022/08/13 11:26:33;;;;;;;2.27;2.07;;;43.80;21.90;;;;;;5014550;28;20585;-85
2022/08/13 11:29:01;;;;;;;3.00;2.00;;;44.60;21.60;;;;;;5016766;28;20439;-83
2022/08/13 11:31:28;;;;;;;2.20;1.63;;;44.70;20.90;;;;;;5018202;28;20443;-84
2022/08/13 11:33:55;;;;;;;2.07;1.87;;;44.10;21.00;;;;;;5017150;28;21307;-83
2022/08/13 11:36:21;;;;;;;5.00;2.03;;;43.40;21.50;;;;;;5012478;28;20481;-82
2022/08/13 11:38:48;;;;;;;2.97;1.83;;;42.60;22.00;;;;;;5012628;28;20872;-83
2022/08/13 11:41:15;;;;;;;2.00;1.90;;;42.50;22.50;;;;;;5015165;28;20833;-83
2022/08/13 11:43:42;;;;;;;2.40;2.20;;;40.80;23.00;;;;;;5014318;28;20836;-83
2022/08/13 11:46:10;;;;;;;2.77;2.03;;;41.90;23.00;;;;;;5014146;28;20443;-84
2022/08/13 11:48:38;;;;;;;1.83;1.73;;;41.90;22.70;;;;;;5012313;28;20497;-83
2022/08/13 11:51:05;;;;;;;2.30;2.10;;;41.50;22.70;;;;;;5013500;28;20455;-83
2022/08/13 11:53:32;;;;;;;2.23;2.03;;;41.30;23.00;;;;;;5014447;28;20486;-83
2022/08/13 11:55:59;;;;;;;1.80;1.70;;;41.50;22.90;;;;;;5014250;28;20800;-82
2022/08/13 11:58:26;;;;;;;3.37;1.87;;;41.80;22.90;;;;;;5015092;28;20447;-86
2022/08/13 12:00:53;;;;;;;2.07;1.90;;;41.90;22.70;;;;;;5017932;28;20501;-86
2022/08/13 12:03:23;;;;;;;2.53;2.00;;;42.10;22.40;;;;;;5019307;28;21177;-84
2022/08/13 12:05:50;;;;;;;1.80;1.70;;;41.40;22.60;;;;;;5012096;28;20443;-89
2022/08/13 12:08:18;;;;;;;2.70;2.50;;;40.30;23.60;;;;;;5014908;28;20915;-86
2022/08/13 12:10:45;;;;;;;2.30;2.10;;;38.80;24.70;;;;;;5007685;28;20447;-85
2022/08/13 12:13:12;;;;;;;2.57;2.23;;;37.50;25.50;;;;;;5008598;28;20852;-85
2022/08/13 12:15:39;;;;;;;2.33;2.13;;;36.40;26.50;;;;;;5014337;28;20453;-86
2022/08/13 12:18:06;;;;;;;3.07;2.30;;;36.70;26.60;;;;;;5000947;28;20477;-83
2022/08/13 12:20:34;;;;;;;2.90;2.03;;;37.80;26.20;;;;;;5006247;28;20512;-82
2022/08/13 12:23:03;;;;;;;3.10;2.03;;;37.80;26.00;;;;;;5025735;28;20468;-82
2022/08/13 12:25:31;;;;;;;2.73;2.40;;;39.00;24.90;;;;;;5032708;28;20441;-82
2022/08/13 12:28:12;;;;;;;3.17;2.17;;;40.40;24.00;;;;;;5021312;28;20440;-85
2022/08/13 12:30:39;;;;;;;4.23;2.00;;;41.80;23.30;;;;;;5012386;28;20446;-85
2022/08/13 12:33:06;;;;;;;2.20;2.00;;;42.60;21.90;;;;;;5013435;28;20876;-85
2022/08/13 12:35:35;;;;;;;3.20;2.17;;;41.70;22.50;;;;;;5004201;28;20475;-86
2022/08/13 12:38:07;;;;;;;2.20;1.97;;;41.80;23.00;;;;;;4998099;28;20451;-84
2022/08/13 12:40:34;;;;;;;4.27;2.10;;;40.20;23.30;;;;;;5005992;28;20533;-83
2022/08/13 12:43:01;;;;;;;3.40;2.40;;;39.90;23.70;;;;;;5005547;28;20470;-82
2022/08/13 12:45:28;;;;;;;3.37;2.23;;;39.70;23.10;;;;;;5011095;28;20815;-83
2022/08/13 12:47:54;;;;;;;2.03;1.83;;;39.80;23.30;;;;;;5013264;28;20442;-84
2022/08/13 12:50:21;;;;;;;4.93;2.60;;;39.70;23.40;;;;;;5014896;28;20449;-82
2022/08/13 12:52:49;;;;;;;2.30;2.03;;;39.10;23.60;;;;;;5014278;28;20465;-83
2022/08/13 12:55:16;;;;;;;2.23;2.03;;;37.90;24.40;;;;;;5014009;28;20487;-84
2022/08/13 12:57:43;;;;;;;2.53;2.10;;;37.40;25.00;;;;;;5003108;28;20456;-81
2022/08/13 13:00:11;;;;;;;2.40;2.20;;;37.70;24.70;;;;;;5005763;28;20480;-83
2022/08/13 13:02:39;;;;;;;2.07;1.87;;;38.30;24.30;;;;;;5009710;28;20477;-82
2022/08/13 13:05:07;;;;;;;1.97;1.77;;;38.90;24.00;;;;;;5014052;28;20505;-84
2022/08/13 13:07:34;;;;;;;1.67;1.57;;;39.10;23.70;;;;;;5014649;28;20479;-83
2022/08/13 13:10:02;;;;;;;1.97;1.77;;;40.50;23.00;;;;;;5009070;28;20438;-83
2022/08/13 13:12:29;;;;;;;2.03;1.93;;;41.60;22.10;;;;;;5013367;28;20474;-82
2022/08/13 13:14:56;;;;;;;3.63;2.10;;;41.50;21.80;;;;;;5021279;28;20489;-82